Time;durP1;ratioP1;P1;durP2;ratioP2;P2;SDS_P1;SDS_P2;PMS_P1;PMS_P2;Temp;Humidity;BMP_temperature;BMP_pressure;BME280_temperature;BME280_humidity;BME280_pressure;Samples;Min_cycle;Max_cycle;Signal;HPM_P1;HPM_P2
2024/01/09 00:00:42;;;;;;;7.20;4.80;;;4.90;81.10;;;;;;6307415;22;20003;-70
2024/01/09 00:03:08;;;;;;;9.13;5.37;;;5.00;79.40;;;;;;6307375;22;20048;-69
2024/01/09 00:05:34;;;;;;;8.03;5.00;;;5.00;79.90;;;;;;6307137;22;19999;-70
2024/01/09 00:08:00;;;;;;;8.47;5.43;;;4.90;79.50;;;;;;6306891;22;20034;-69
2024/01/09 00:10:26;;;;;;;11.20;4.47;;;4.90;77.70;;;;;;6306927;22;20006;-69
2024/01/09 00:12:52;;;;;;;9.13;6.10;;;4.90;77.90;;;;;;6307573;22;20007;-69
2024/01/09 00:15:18;;;;;;;7.80;5.13;;;4.80;78.20;;;;;;6307252;22;20069;-69
2024/01/09 00:17:43;;;;;;;8.47;5.33;;;4.80;77.20;;;;;;6307394;22;20094;-69
2024/01/09 00:20:10;;;;;;;10.00;5.53;;;4.80;77.60;;;;;;6307699;22;20020;-69
2024/01/09 00:22:36;;;;;;;7.73;4.87;;;4.70;78.70;;;;;;6307146;22;20116;-69
2024/01/09 00:25:02;;;;;;;8.50;5.30;;;;;;;;;;6307109;22;20116;-69
2024/01/09 00:27:28;;;;;;;8.17;5.27;;;4.60;79.90;;;;;;6307259;22;19999;-70
2024/01/09 00:29:54;;;;;;;7.90;5.47;;;4.60;80.60;;;;;;6307524;22;20026;-70
2024/01/09 00:32:20;;;;;;;9.57;5.73;;;4.60;80.90;;;;;;6307919;22;20008;-69
2024/01/09 00:34:45;;;;;;;11.60;6.10;;;4.50;81.40;;;;;;6307812;22;20368;-70
2024/01/09 00:37:12;;;;;;;7.83;5.30;;;4.50;80.80;;;;;;6308200;22;20003;-69
2024/01/09 00:39:38;;;;;;;9.30;5.80;;;4.60;80.20;;;;;;6307720;22;20084;-69
2024/01/09 00:59:49;;;;;;;7.40;4.80;;;4.50;79.80;;;;;;5926141;24;20085;-69
2024/01/09 01:03:03;;;;;;;8.23;5.20;;;4.50;79.20;;;;;;5932891;23;20135;-70
2024/01/09 01:05:38;;;;;;;7.37;5.03;;;4.50;79.60;;;;;;6037164;23;20007;-70
2024/01/09 01:08:05;;;;;;;9.43;5.57;;;4.50;79.30;;;;;;6105062;23;20508;-69
2024/01/09 01:10:31;;;;;;;8.67;5.60;;;4.50;79.80;;;;;;6123825;23;20318;-69
2024/01/09 01:12:56;;;;;;;7.70;5.23;;;4.50;79.30;;;;;;6200484;22;20093;-69
2024/01/09 01:15:23;;;;;;;8.83;5.77;;;4.40;79.10;;;;;;6277979;22;20070;-70
2024/01/09 01:17:49;;;;;;;6.10;4.80;;;4.50;77.90;;;;;;6277584;22;20035;-69
2024/01/09 01:20:15;;;;;;;8.43;5.23;;;4.50;77.80;;;;;;6277891;22;20012;-69
2024/01/09 01:22:41;;;;;;;8.03;5.13;;;4.50;77.40;;;;;;6277468;22;20031;-70
2024/01/09 01:25:08;;;;;;;10.40;6.17;;;4.60;77.50;;;;;;6250346;22;20326;-69
2024/01/09 01:27:34;;;;;;;8.80;5.30;;;4.60;77.60;;;;;;6277456;22;20063;-69
2024/01/09 01:29:59;;;;;;;9.80;5.90;;;4.50;78.00;;;;;;6277671;22;20026;-69
2024/01/09 01:32:25;;;;;;;8.37;5.10;;;4.50;78.30;;;;;;6277750;22;20000;-71
2024/01/09 01:34:51;;;;;;;7.57;5.30;;;4.50;77.30;;;;;;6277225;22;19999;-69
2024/01/09 01:37:17;;;;;;;9.33;6.10;;;4.50;77.70;;;;;;6277679;22;20007;-69
2024/01/09 01:39:42;;;;;;;9.73;5.50;;;4.50;78.10;;;;;;6277048;22;20008;-69
2024/01/09 01:42:08;;;;;;;9.60;6.17;;;4.40;78.10;;;;;;6277413;22;20000;-69
2024/01/09 01:44:36;;;;;;;9.60;6.30;;;4.40;78.70;;;;;;6277765;22;20045;-69
2024/01/09 01:47:02;;;;;;;9.83;5.60;;;4.30;78.60;;;;;;6277606;22;20003;-69
2024/01/09 01:49:28;;;;;;;8.23;5.90;;;4.30;79.30;;;;;;6277599;22;20000;-69
2024/01/09 01:51:53;;;;;;;9.90;6.57;;;4.30;78.60;;;;;;6277035;22;20029;-69
2024/01/09 01:54:21;;;;;;;9.43;5.97;;;4.30;80.10;;;;;;6277299;22;20065;-69
2024/01/09 01:56:47;;;;;;;9.97;6.43;;;4.30;78.90;;;;;;6290458;22;20018;-69
2024/01/09 01:59:15;;;;;;;12.90;6.47;;;4.30;78.50;;;;;;6305067;22;20344;-69
2024/01/09 02:01:43;;;;;;;10.63;6.33;;;4.20;79.10;;;;;;6305160;22;19999;-69
2024/01/09 02:04:11;;;;;;;9.03;5.70;;;4.20;79.90;;;;;;6305758;22;20349;-69
2024/01/09 02:06:38;;;;;;;10.63;5.93;;;4.10;79.70;;;;;;6308311;22;19999;-69
2024/01/09 02:09:04;;;;;;;10.63;5.80;;;4.20;80.20;;;;;;6309027;22;20027;-69
2024/01/09 02:11:31;;;;;;;7.80;5.47;;;4.20;78.90;;;;;;6308923;22;20325;-69
2024/01/09 02:13:58;;;;;;;9.60;6.20;;;4.20;78.60;;;;;;6308279;22;20082;-69
2024/01/09 02:16:24;;;;;;;9.40;6.07;;;4.10;78.70;;;;;;6281312;22;19999;-69
2024/01/09 02:21:52;;;;;;;9.18;6.05;;;4.10;79.30;;;;;;6305639;22;20480;-70
2024/01/09 02:24:56;;;;;;;10.17;6.33;;;4.10;79.30;;;;;;6306124;22;20374;-69
2024/01/09 02:28:13;;;;;;;9.97;6.03;;;4.10;79.50;;;;;;6242147;22;20000;-70
2024/01/09 02:31:42;;;;;;;9.47;5.77;;;4.10;79.00;;;;;;6168580;23;20000;-70
2024/01/09 02:34:24;;;;;;;9.67;5.37;;;4.10;78.80;;;;;;6241209;22;20039;-69
2024/01/09 02:36:50;;;;;;;12.13;6.50;;;4.10;79.00;;;;;;6200302;22;20004;-69
2024/01/09 02:39:15;;;;;;;9.43;6.03;;;4.20;78.30;;;;;;6300845;22;20022;-69
2024/01/09 02:41:56;;;;;;;12.30;6.20;;;4.20;77.90;;;;;;6307053;22;20086;-70
2024/01/09 02:44:22;;;;;;;11.10;5.87;;;4.20;76.30;;;;;;6305513;22;20368;-70
2024/01/09 02:46:48;;;;;;;9.40;5.97;;;4.20;77.30;;;;;;6305852;22;19999;-69
2024/01/09 02:49:14;;;;;;;8.80;5.83;;;4.10;78.40;;;;;;6306761;22;19999;-69
2024/01/09 02:51:40;;;;;;;8.73;5.83;;;4.10;78.50;;;;;;6307641;22;20006;-69
2024/01/09 02:54:05;;;;;;;9.83;6.00;;;4.00;79.90;;;;;;6307947;22;20022;-69
2024/01/09 02:56:32;;;;;;;9.07;6.13;;;4.00;79.50;;;;;;6280134;22;20015;-69
2024/01/09 02:58:58;;;;;;;10.17;5.77;;;4.00;78.70;;;;;;6307437;22;20011;-69
2024/01/09 03:01:24;;;;;;;9.13;5.70;;;3.90;78.20;;;;;;6307758;22;19996;-69
2024/01/09 03:03:50;;;;;;;8.97;5.50;;;3.90;77.70;;;;;;6280539;22;20018;-69
2024/01/09 03:06:16;;;;;;;8.90;5.73;;;3.90;78.20;;;;;;6307715;22;20030;-69
2024/01/09 03:08:41;;;;;;;10.80;5.90;;;3.90;78.00;;;;;;6307761;22;20007;-69
2024/01/09 03:11:07;;;;;;;10.70;6.03;;;3.90;78.00;;;;;;6307284;22;20003;-69
2024/01/09 03:13:33;;;;;;;11.40;5.73;;;4.00;78.40;;;;;;6306833;22;19995;-69
2024/01/09 03:15:59;;;;;;;11.80;6.10;;;3.90;78.60;;;;;;6307766;22;19999;-69
2024/01/09 03:18:24;;;;;;;9.73;6.23;;;4.00;77.60;;;;;;6307542;22;20003;-69
2024/01/09 03:20:50;;;;;;;9.90;5.83;;;4.00;77.40;;;;;;6307670;22;20000;-69
2024/01/09 03:23:16;;;;;;;12.03;6.33;;;4.00;77.50;;;;;;6307248;22;20003;-70
2024/01/09 03:25:42;;;;;;;9.50;6.03;;;4.00;77.60;;;;;;6307375;22;20027;-69
2024/01/09 03:28:07;;;;;;;9.27;5.77;;;4.00;77.70;;;;;;6307560;22;20003;-69
2024/01/09 03:30:33;;;;;;;9.53;5.97;;;4.00;74.90;;;;;;6307532;22;20014;-69
2024/01/09 03:32:59;;;;;;;8.97;5.27;;;4.00;75.10;;;;;;6307544;22;20029;-69
2024/01/09 03:35:25;;;;;;;10.07;5.80;;;4.00;75.20;;;;;;6307214;22;19999;-70
2024/01/09 03:37:50;;;;;;;9.77;6.27;;;4.00;74.90;;;;;;6307281;22;20007;-69
2024/01/09 03:40:16;;;;;;;11.43;5.90;;;4.00;75.60;;;;;;6307137;22;20014;-69
2024/01/09 03:42:42;;;;;;;11.63;6.40;;;4.00;76.20;;;;;;6307186;22;20082;-69
2024/01/09 03:45:08;;;;;;;8.83;5.47;;;4.00;75.50;;;;;;6307327;22;20003;-69
2024/01/09 03:47:34;;;;;;;10.10;5.90;;;4.00;75.80;;;;;;6307635;22;20000;-70
2024/01/09 03:50:00;;;;;;;10.27;6.10;;;4.00;76.30;;;;;;6308703;22;20375;-69
2024/01/09 03:52:26;;;;;;;10.90;6.50;;;3.90;76.80;;;;;;6308253;22;20003;-69
2024/01/09 03:54:52;;;;;;;8.67;5.40;;;3.90;77.10;;;;;;6308298;22;19995;-69
2024/01/09 03:57:20;;;;;;;11.53;5.67;;;3.90;77.80;;;;;;6307818;22;20042;-69
2024/01/09 04:03:53;;;;;;;8.87;5.37;;;3.80;77.30;;;;;;6296131;22;20421;-70
2024/01/09 04:06:45;;;;;;;9.57;5.70;;;3.80;77.50;;;;;;6282498;22;20369;-69
2024/01/09 04:09:14;;;;;;;11.20;6.22;;;3.80;77.90;;;;;;6299887;22;20007;-69
2024/01/09 04:12:01;;;;;;;10.50;6.10;;;3.80;78.50;;;;;;6306831;22;20388;-69
2024/01/09 04:15:24;;;;;;;;;;;;;;;;;;;;;
2024/01/09 04:17:56;;;;;;;8.90;5.93;;;3.80;78.80;;;;;;6253217;22;20453;-70
2024/01/09 04:21:00;;;;;;;10.27;6.27;;;3.70;78.00;;;;;;6307000;22;20396;-70
2024/01/09 04:23:32;;;;;;;9.63;5.97;;;3.80;78.40;;;;;;6242313;23;20087;-69
2024/01/09 04:25:58;;;;;;;10.15;5.78;;;3.80;77.70;;;;;;6243007;23;20079;-70
2024/01/09 04:28:24;;;;;;;10.93;5.83;;;3.70;77.40;;;;;;6287453;22;20027;-69
2024/01/09 04:30:49;;;;;;;10.23;6.07;;;3.70;78.30;;;;;;6307164;22;20071;-69
2024/01/09 04:33:15;;;;;;;11.67;6.57;;;3.70;78.10;;;;;;6306273;22;20000;-69
2024/01/09 04:35:41;;;;;;;11.07;5.80;;;3.80;77.20;;;;;;6306009;22;20425;-69
2024/01/09 04:38:07;;;;;;;12.07;6.20;;;3.70;77.30;;;;;;6307127;22;20082;-69
2024/01/09 04:40:32;;;;;;;12.70;6.00;;;3.70;78.40;;;;;;6307471;22;20011;-69
2024/01/09 04:42:58;;;;;;;10.30;5.50;;;3.70;78.80;;;;;;6307381;22;19995;-69
2024/01/09 04:45:24;;;;;;;10.87;5.90;;;3.70;78.40;;;;;;6307220;22;20079;-69
2024/01/09 04:47:50;;;;;;;9.27;6.17;;;3.70;77.30;;;;;;6306712;22;19999;-69
2024/01/09 04:50:15;;;;;;;10.80;6.30;;;3.70;76.90;;;;;;6306746;22;20034;-69
2024/01/09 04:52:41;;;;;;;10.10;6.43;;;3.70;76.70;;;;;;6307152;22;20000;-69
2024/01/09 04:55:07;;;;;;;10.43;6.23;;;3.80;75.50;;;;;;6307017;22;20422;-70
2024/01/09 04:57:33;;;;;;;11.93;6.17;;;3.70;76.00;;;;;;6306591;22;20015;-70
2024/01/09 04:59:59;;;;;;;12.77;6.17;;;3.80;75.30;;;;;;6306693;22;20023;-70
2024/01/09 05:02:25;;;;;;;9.87;6.07;;;3.80;73.70;;;;;;6306573;22;19996;-69
2024/01/09 05:04:50;;;;;;;10.40;6.50;;;3.80;75.20;;;;;;6306877;22;20027;-70
2024/01/09 05:07:16;;;;;;;11.73;6.07;;;3.80;74.20;;;;;;6307124;22;20004;-70
2024/01/09 05:09:42;;;;;;;11.70;6.23;;;3.80;74.10;;;;;;6306524;22;19999;-70
2024/01/09 05:12:08;;;;;;;11.40;7.17;;;3.80;75.00;;;;;;6307175;22;20061;-69
2024/01/09 05:14:33;;;;;;;9.47;6.00;;;3.80;75.90;;;;;;6307354;22;20074;-69
2024/01/09 05:16:59;;;;;;;11.77;6.70;;;3.70;75.70;;;;;;6307270;22;20010;-69
2024/01/09 05:19:25;;;;;;;16.50;10.53;;;3.60;75.30;;;;;;6306589;22;20014;-69
2024/01/09 05:21:51;;;;;;;12.67;7.70;;;3.60;77.30;;;;;;6305041;22;20003;-69
2024/01/09 05:24:16;;;;;;;9.70;6.37;;;3.60;77.00;;;;;;6303060;22;20007;-69
2024/01/09 05:26:42;;;;;;;13.33;6.67;;;3.50;77.60;;;;;;6303929;22;20078;-70
2024/01/09 05:29:08;;;;;;;10.60;5.93;;;3.50;78.00;;;;;;6306682;22;20460;-69
2024/01/09 05:31:41;;;;;;;12.13;6.47;;;3.50;77.30;;;;;;6306542;22;20325;-69
2024/01/09 05:34:08;;;;;;;9.40;6.17;;;3.50;76.90;;;;;;6307747;22;20354;-69
2024/01/09 05:36:34;;;;;;;10.20;5.83;;;3.40;77.60;;;;;;6309385;22;20341;-70
2024/01/09 05:59:37;;;;;;;10.97;6.03;;;3.40;79.10;;;;;;5994677;23;20432;-69
2024/01/09 06:02:33;;;;;;;13.40;6.43;;;3.40;77.00;;;;;;5980432;24;20016;-70
2024/01/09 06:04:58;;;;;;;10.53;6.37;;;3.40;77.20;;;;;;5980768;23;20028;-69
2024/01/09 06:07:24;;;;;;;10.53;6.03;;;3.40;79.00;;;;;;5995916;23;20320;-69
2024/01/09 06:09:50;;;;;;;15.83;6.97;;;3.40;78.80;;;;;;6203912;22;20376;-70
2024/01/09 06:12:16;;;;;;;12.97;7.03;;;3.30;78.20;;;;;;6308284;22;19995;-69
2024/01/09 06:14:42;;;;;;;10.10;6.23;;;3.40;78.00;;;;;;6308208;22;20457;-70
2024/01/09 06:17:07;;;;;;;10.97;6.97;;;3.30;77.80;;;;;;6280852;22;20078;-69
2024/01/09 06:19:35;;;;;;;10.20;5.90;;;3.30;78.80;;;;;;6307897;22;20014;-69
2024/01/09 06:22:00;;;;;;;11.57;7.00;;;3.30;78.80;;;;;;6308165;22;20044;-70
2024/01/09 06:24:26;;;;;;;11.27;6.80;;;3.30;78.50;;;;;;6308319;22;19999;-69
2024/01/09 06:26:52;;;;;;;14.40;6.73;;;3.30;78.60;;;;;;6308306;22;20003;-69
2024/01/09 06:29:17;;;;;;;10.07;6.43;;;3.30;77.90;;;;;;6307897;22;20007;-69
2024/01/09 06:31:43;;;;;;;11.73;6.20;;;3.30;76.90;;;;;;6308004;22;19999;-69
2024/01/09 06:34:09;;;;;;;10.77;6.60;;;3.30;77.90;;;;;;6307787;22;20003;-69
2024/01/09 06:36:35;;;;;;;11.00;6.33;;;3.30;77.80;;;;;;6307556;22;19999;-68
2024/01/09 06:39:00;;;;;;;14.47;7.30;;;3.20;77.80;;;;;;6307963;22;20007;-70
2024/01/09 06:41:26;;;;;;;11.30;6.73;;;3.20;77.10;;;;;;6307933;22;20030;-69
2024/01/09 06:43:52;;;;;;;17.03;7.90;;;3.20;77.10;;;;;;6307891;22;20007;-70
2024/01/09 06:46:18;;;;;;;12.33;7.33;;;3.20;78.00;;;;;;6307381;22;20021;-69
2024/01/09 06:48:43;;;;;;;12.27;7.00;;;3.20;77.90;;;;;;6307696;22;19999;-69
2024/01/09 06:51:11;;;;;;;10.83;6.30;;;3.20;79.10;;;;;;6308050;22;20003;-70
2024/01/09 06:53:37;;;;;;;12.03;7.00;;;3.20;78.70;;;;;;6308086;22;20421;-69
2024/01/09 06:56:04;;;;;;;14.60;7.27;;;3.20;78.80;;;;;;6307927;22;20000;-69
2024/01/09 06:58:30;;;;;;;15.47;9.20;;;3.10;79.00;;;;;;6307309;22;20000;-69
2024/01/09 07:00:56;;;;;;;14.07;7.87;;;3.10;78.30;;;;;;6307690;22;20053;-69
2024/01/09 07:03:22;;;;;;;12.20;7.53;;;3.10;78.20;;;;;;6307426;22;19999;-69
2024/01/09 07:05:48;;;;;;;14.83;7.67;;;3.10;78.70;;;;;;6307547;22;20003;-69
2024/01/09 07:08:13;;;;;;;11.73;7.17;;;3.10;80.00;;;;;;6279867;22;20003;-69
2024/01/09 07:10:39;;;;;;;12.93;7.13;;;3.10;80.10;;;;;;6308392;22;20003;-69
2024/01/09 07:13:05;;;;;;;13.80;8.00;;;3.10;79.90;;;;;;6308624;22;20449;-70
2024/01/09 07:15:31;;;;;;;12.77;7.10;;;3.10;79.60;;;;;;6308555;22;20007;-69
2024/01/09 07:18:00;;;;;;;12.63;6.70;;;3.10;79.30;;;;;;6308295;22;20003;-68
2024/01/09 07:38:24;;;;;;;12.00;7.73;;;3.20;78.10;;;;;;6008351;23;20087;-68
2024/01/09 07:41:27;;;;;;;17.13;8.37;;;3.30;78.30;;;;;;6056878;23;20020;-68
2024/01/09 07:44:01;;;;;;;14.13;8.73;;;3.30;78.10;;;;;;6182086;23;20005;-68
2024/01/09 07:46:27;;;;;;;16.97;10.07;;;3.30;79.10;;;;;;6182676;23;20368;-69
2024/01/09 07:48:53;;;;;;;15.87;8.60;;;3.40;78.10;;;;;;6290966;22;20003;-68
2024/01/09 07:51:19;;;;;;;12.93;7.47;;;3.40;78.50;;;;;;6307309;22;20060;-68
2024/01/09 07:53:45;;;;;;;13.03;7.33;;;3.40;78.50;;;;;;6304764;22;20003;-68
2024/01/09 07:56:16;;;;;;;15.03;7.63;;;3.50;78.30;;;;;;6303570;22;20037;-70
2024/01/09 07:58:42;;;;;;;14.57;8.37;;;3.60;78.50;;;;;;6275403;22;20384;-69
2024/01/09 08:01:09;;;;;;;17.50;9.00;;;3.60;78.60;;;;;;6305172;22;20057;-69
2024/01/09 08:03:34;;;;;;;18.77;8.97;;;3.70;78.60;;;;;;6306007;22;20011;-69
2024/01/09 08:06:00;;;;;;;15.70;9.03;;;3.80;77.80;;;;;;6305581;22;19996;-70
2024/01/09 08:08:26;;;;;;;14.50;8.13;;;3.80;77.60;;;;;;6305961;22;20010;-70
2024/01/09 08:10:52;;;;;;;17.83;9.10;;;3.80;76.10;;;;;;6307176;22;20045;-68
2024/01/09 08:13:17;;;;;;;16.63;8.33;;;3.90;77.20;;;;;;6307221;22;19999;-69
2024/01/09 08:15:43;;;;;;;14.77;8.37;;;4.00;76.80;;;;;;6306679;22;20027;-70
2024/01/09 08:18:09;;;;;;;16.63;8.57;;;4.00;77.20;;;;;;6305370;22;20003;-69
2024/01/09 08:20:35;;;;;;;16.27;8.33;;;;;;;;;;6276205;22;20015;-69
2024/01/09 08:23:02;;;;;;;12.93;8.33;;;;;;;;;;6304501;22;20425;-70
2024/01/09 08:25:28;;;;;;;15.17;7.97;;;;;;;;;;6307147;22;20003;-71
2024/01/09 08:27:54;;;;;;;13.93;7.83;;;;;;;;;;6307002;22;19999;-70
2024/01/09 08:30:20;;;;;;;17.20;8.30;;;;;;;;;;6307599;22;20376;-70
2024/01/09 08:32:46;;;;;;;15.00;9.13;;;;;;;;;;6304308;22;20056;-69
2024/01/09 08:35:12;;;;;;;15.23;7.63;;;4.10;77.60;;;;;;6275946;22;20515;-70
2024/01/09 08:37:38;;;;;;;14.87;7.13;;;;;;;;;;6275295;22;20011;-70
2024/01/09 08:40:06;;;;;;;12.17;6.77;;;4.60;75.10;;;;;;6304119;22;20011;-70
2024/01/09 08:42:31;;;;;;;12.80;7.50;;;4.70;73.50;;;;;;6305707;22;20006;-70
2024/01/09 08:44:57;;;;;;;12.27;6.90;;;4.70;74.30;;;;;;6305579;22;20003;-71
2024/01/09 08:47:23;;;;;;;14.87;7.80;;;4.70;75.10;;;;;;6306445;22;20075;-70
2024/01/09 08:49:50;;;;;;;14.70;7.33;;;4.70;75.60;;;;;;6306752;22;20004;-70
2024/01/09 08:52:21;;;;;;;11.53;6.73;;;4.70;75.20;;;;;;6307218;22;20306;-70
2024/01/09 08:54:47;;;;;;;13.30;7.83;;;4.80;74.90;;;;;;6307199;22;20006;-71
2024/01/09 08:57:16;;;;;;;13.07;7.33;;;4.80;74.50;;;;;;6306720;22;20000;-71
2024/01/09 09:04:03;;;;;;;13.33;8.17;;;4.90;72.50;;;;;;6244268;23;20404;-71
2024/01/09 09:09:48;;;;;;;13.43;5.27;;;5.00;72.20;;;;;;6173376;22;20028;-67
2024/01/09 09:12:15;;;;;;;10.00;6.00;;;5.10;70.50;;;;;;6220115;23;20062;-68
2024/01/09 09:14:41;;;;;;;13.00;5.97;;;5.20;69.50;;;;;;6247453;23;20334;-68
2024/01/09 09:17:08;;;;;;;10.23;5.43;;;5.20;68.90;;;;;;6246851;23;20000;-68
2024/01/09 09:19:33;;;;;;;8.57;5.63;;;5.20;69.90;;;;;;6219493;23;20346;-67
2024/01/09 09:22:01;;;;;;;9.87;5.80;;;5.30;70.00;;;;;;6247050;23;20003;-67
2024/01/09 09:24:27;;;;;;;9.20;5.70;;;5.30;69.80;;;;;;6246576;23;20016;-67
2024/01/09 09:26:53;;;;;;;13.03;6.03;;;5.30;68.90;;;;;;6246967;23;20326;-68
2024/01/09 09:29:19;;;;;;;9.60;5.73;;;5.40;69.00;;;;;;6246672;23;20011;-68
2024/01/09 09:31:44;;;;;;;9.20;5.63;;;5.40;68.40;;;;;;6246628;23;20054;-68
2024/01/09 09:34:10;;;;;;;13.00;7.00;;;5.50;67.90;;;;;;6246959;23;20000;-68
2024/01/09 09:36:36;;;;;;;12.83;5.33;;;5.50;67.30;;;;;;6245786;23;19992;-68
2024/01/09 09:39:02;;;;;;;10.63;6.33;;;5.50;67.70;;;;;;6244701;23;20012;-68
2024/01/09 09:41:29;;;;;;;10.43;4.97;;;5.60;66.30;;;;;;6244774;23;20000;-68
2024/01/09 09:43:56;;;;;;;8.47;5.07;;;5.60;66.50;;;;;;6245450;23;20004;-68
2024/01/09 09:46:30;;;;;;;11.93;6.70;;;5.60;67.10;;;;;;6244969;23;20000;-68
2024/01/09 09:48:57;;;;;;;9.10;5.40;;;5.60;66.40;;;;;;6245410;23;20060;-68
2024/01/09 09:51:24;;;;;;;9.57;5.47;;;5.70;66.80;;;;;;6244579;23;20677;-68
2024/01/09 09:53:52;;;;;;;9.20;5.63;;;5.70;66.80;;;;;;6246215;23;20330;-68
2024/01/09 09:56:18;;;;;;;11.77;6.43;;;5.70;66.00;;;;;;6246252;23;20000;-68
2024/01/09 09:58:44;;;;;;;12.73;6.03;;;5.80;66.40;;;;;;6245977;23;20020;-68
2024/01/09 10:01:12;;;;;;;11.50;5.80;;;;;;;;;;6247023;23;20444;-67
2024/01/09 10:04:07;;;;;;;12.00;5.47;;;5.80;67.30;;;;;;6246938;23;20011;-68
2024/01/09 10:06:36;;;;;;;8.73;5.33;;;5.90;67.20;;;;;;6246924;23;19996;-68
2024/01/09 10:09:05;;;;;;;8.93;5.63;;;5.90;67.30;;;;;;6246719;23;20075;-68
2024/01/09 10:11:34;;;;;;;8.53;4.63;;;5.90;66.20;;;;;;6246729;23;20004;-68
2024/01/09 10:14:00;;;;;;;12.40;6.53;;;6.00;67.00;;;;;;6247128;23;20197;-67
2024/01/09 10:16:26;;;;;;;8.03;5.20;;;6.00;67.20;;;;;;6247434;23;20079;-68
2024/01/09 10:18:55;;;;;;;8.40;5.07;;;6.10;67.10;;;;;;6246903;23;20482;-68
2024/01/09 10:21:22;;;;;;;10.10;5.43;;;6.10;65.50;;;;;;6247521;23;20436;-67
2024/01/09 10:31:46;;;;;;;13.73;5.30;;;6.20;65.90;;;;;;6154597;23;20029;-68
2024/01/09 10:34:33;;;;;;;11.13;5.43;;;6.20;63.50;;;;;;6124217;23;20010;-67
2024/01/09 10:37:36;;;;;;;10.30;4.90;;;6.30;64.00;;;;;;6123894;23;20360;-67
2024/01/09 10:43:42;;;;;;;7.37;5.10;;;6.40;64.70;;;;;;6097607;23;20096;-68
2024/01/09 10:49:40;;;;;;;8.50;4.47;;;6.40;63.20;;;;;;6141774;23;20014;-68
2024/01/09 10:52:13;;;;;;;8.43;4.83;;;6.50;64.10;;;;;;6115143;23;20424;-68
2024/01/09 10:54:44;;;;;;;12.57;5.03;;;6.50;63.50;;;;;;6152029;23;20007;-68
2024/01/09 10:57:16;;;;;;;12.50;5.50;;;6.50;63.10;;;;;;6246562;23;20012;-68
2024/01/09 10:59:43;;;;;;;;;;;6.50;62.40;;;;;;6246486;23;20447;-69
2024/01/09 11:02:17;;;;;;;8.57;5.10;;;6.60;61.60;;;;;;6246046;23;19931;-68
2024/01/09 11:04:43;;;;;;;9.03;4.90;;;6.60;63.10;;;;;;6246280;23;20322;-67
2024/01/09 11:07:15;;;;;;;11.10;4.80;;;6.60;62.80;;;;;;6245998;23;20001;-68
2024/01/09 11:09:44;;;;;;;10.77;4.97;;;6.60;61.80;;;;;;6244902;23;20356;-68
2024/01/09 11:12:21;;;;;;;10.33;5.73;;;6.70;61.80;;;;;;6245694;23;20378;-67
2024/01/09 11:14:52;;;;;;;9.20;5.00;;;6.70;62.00;;;;;;6242770;23;20491;-68
2024/01/09 11:17:20;;;;;;;7.80;5.27;;;6.70;61.00;;;;;;6245448;23;20022;-68
2024/01/09 11:19:46;;;;;;;8.50;5.40;;;6.70;60.60;;;;;;6245500;23;20441;-68
2024/01/09 11:22:14;;;;;;;7.50;4.57;;;6.60;60.70;;;;;;6245365;23;19997;-68
2024/01/09 11:24:40;;;;;;;9.07;4.77;;;6.60;61.80;;;;;;6246020;23;20008;-67
2024/01/09 11:27:13;;;;;;;10.40;5.37;;;6.70;61.80;;;;;;6245628;23;20027;-68
2024/01/09 11:29:49;;;;;;;9.93;5.10;;;6.70;60.00;;;;;;6245690;23;20007;-71
2024/01/09 11:32:18;;;;;;;7.43;5.03;;;6.70;60.10;;;;;;6245006;23;20050;-70
2024/01/09 11:34:48;;;;;;;9.70;5.67;;;6.70;60.60;;;;;;6245358;23;20083;-71
2024/01/09 11:37:20;;;;;;;8.80;4.90;;;6.60;60.60;;;;;;6218498;23;20426;-71
2024/01/09 11:39:46;;;;;;;13.00;5.75;;;6.70;60.60;;;;;;6218149;23;20012;-71
2024/01/09 11:42:12;;;;;;;7.63;4.97;;;6.60;60.80;;;;;;6245772;23;20003;-71
2024/01/09 11:44:39;;;;;;;11.97;5.53;;;6.70;61.10;;;;;;6245205;23;20008;-71
2024/01/09 11:47:05;;;;;;;8.20;5.00;;;6.70;61.80;;;;;;6245562;23;19996;-67
2024/01/09 11:49:30;;;;;;;8.57;5.70;;;6.80;62.10;;;;;;6246332;23;20039;-68
2024/01/09 11:51:57;;;;;;;9.23;5.40;;;6.90;60.80;;;;;;6245939;23;20418;-68
2024/01/09 11:54:23;;;;;;;7.63;5.20;;;6.90;60.50;;;;;;6245787;23;20331;-67
2024/01/09 11:56:50;;;;;;;11.20;5.93;;;6.90;60.80;;;;;;6245551;23;20003;-68
2024/01/09 12:00:10;;;;;;;10.37;5.50;;;6.90;60.50;;;;;;6245351;23;20358;-68
2024/01/09 12:03:00;;;;;;;8.90;5.23;;;6.90;60.70;;;;;;6245539;23;20015;-68
2024/01/09 12:09:16;;;;;;;9.00;5.70;;;6.90;59.20;;;;;;6135419;23;20179;-68
2024/01/09 12:11:59;;;;;;;9.87;5.10;;;6.90;59.20;;;;;;6123195;23;20097;-68
2024/01/09 12:18:02;;;;;;;8.87;5.03;;;6.90;59.70;;;;;;6121138;23;20017;-67
2024/01/09 12:23:50;;;;;;;7.83;4.90;;;6.90;60.80;;;;;;6160767;23;20009;-68
2024/01/09 12:26:19;;;;;;;8.37;4.90;;;6.90;61.40;;;;;;6188709;23;20004;-68
2024/01/09 12:28:46;;;;;;;8.13;5.10;;;6.90;59.90;;;;;;6215057;23;20090;-68
2024/01/09 12:31:15;;;;;;;7.33;5.10;;;6.90;60.30;;;;;;6214968;23;20005;-68
2024/01/09 12:33:41;;;;;;;9.57;5.43;;;6.90;60.10;;;;;;6215240;23;20075;-68
2024/01/09 12:36:07;;;;;;;9.60;4.80;;;6.90;60.10;;;;;;6214899;23;20001;-68
2024/01/09 12:38:33;;;;;;;9.20;5.27;;;7.00;60.70;;;;;;6214938;23;20358;-68
2024/01/09 12:41:04;;;;;;;11.93;4.87;;;7.00;60.30;;;;;;6188527;23;20378;-68
2024/01/09 12:43:31;;;;;;;8.73;5.10;;;7.00;60.00;;;;;;6215385;23;20062;-68
2024/01/09 12:45:59;;;;;;;7.70;4.80;;;7.00;60.80;;;;;;6216813;23;20488;-68
2024/01/09 12:48:26;;;;;;;7.70;4.73;;;7.00;61.30;;;;;;6217384;23;20005;-68
2024/01/09 12:51:03;;;;;;;8.40;5.17;;;7.10;61.70;;;;;;6217503;23;20008;-68
2024/01/09 12:53:33;;;;;;;9.17;5.57;;;7.10;60.30;;;;;;6217209;23;20423;-68
2024/01/09 12:56:12;;;;;;;9.93;5.07;;;7.10;60.30;;;;;;6217208;23;20418;-68
2024/01/09 12:58:42;;;;;;;13.27;5.50;;;7.10;60.00;;;;;;6216597;23;19996;-68
2024/01/09 13:01:08;;;;;;;9.73;5.93;;;7.10;60.20;;;;;;6216710;23;20063;-68
2024/01/09 13:03:33;;;;;;;12.00;5.73;;;7.10;59.10;;;;;;6217328;23;20004;-68
2024/01/09 13:06:04;;;;;;;8.33;5.33;;;7.00;59.30;;;;;;6216860;23;20054;-68
2024/01/09 13:08:34;;;;;;;8.03;5.20;;;7.00;59.50;;;;;;6216447;23;20007;-67
2024/01/09 13:11:04;;;;;;;12.33;5.70;;;6.90;59.70;;;;;;6236648;23;20158;-68
2024/01/09 13:13:31;;;;;;;10.90;5.70;;;6.90;59.90;;;;;;6247508;23;19996;-68
2024/01/09 13:15:57;;;;;;;9.97;6.00;;;6.90;59.60;;;;;;6247500;23;20065;-68
2024/01/09 13:18:23;;;;;;;9.97;5.97;;;6.80;59.10;;;;;;6247350;23;19997;-69
2024/01/09 13:20:51;;;;;;;10.40;6.10;;;6.80;59.80;;;;;;6247043;23;20079;-68
2024/01/09 13:23:18;;;;;;;9.97;5.50;;;6.80;59.30;;;;;;6220100;23;20062;-69
2024/01/09 13:25:44;;;;;;;14.53;5.70;;;6.70;59.50;;;;;;6248267;23;20406;-68
2024/01/09 13:28:11;;;;;;;8.73;5.47;;;6.70;59.50;;;;;;6247858;23;20087;-68
2024/01/09 13:30:38;;;;;;;10.70;5.37;;;6.70;60.00;;;;;;6247387;23;20012;-68
2024/01/09 13:33:09;;;;;;;9.60;5.53;;;6.70;60.40;;;;;;6247075;23;20066;-68
2024/01/09 13:35:41;;;;;;;10.17;5.60;;;6.70;60.20;;;;;;6247055;23;20318;-68
2024/01/09 13:42:24;;;;;;;10.57;5.37;;;6.70;60.10;;;;;;6153992;23;20028;-70
2024/01/09 13:49:13;;;;;;;;;;;6.60;59.80;;;;;;6053165;23;20006;-67
2024/01/09 13:55:31;;;;;;;9.35;5.53;;;6.50;59.00;;;;;;6149577;23;20013;-70
2024/01/09 13:58:26;;;;;;;13.30;5.60;;;6.40;59.70;;;;;;6113466;23;20341;-69
2024/01/09 14:00:54;;;;;;;10.30;5.83;;;6.40;59.80;;;;;;6127978;23;20089;-68
2024/01/09 14:03:21;;;;;;;9.10;5.70;;;6.30;60.10;;;;;;6128312;23;20341;-68
2024/01/09 14:05:47;;;;;;;12.13;5.97;;;6.30;60.70;;;;;;6226877;23;20324;-68
2024/01/09 14:08:14;;;;;;;12.17;5.87;;;6.20;60.70;;;;;;6246592;23;20372;-68
2024/01/09 14:10:41;;;;;;;9.17;5.33;;;6.20;60.60;;;;;;6246766;23;20069;-67
2024/01/09 14:13:06;;;;;;;9.30;5.43;;;6.30;60.50;;;;;;6246823;23;20031;-67
2024/01/09 14:15:33;;;;;;;10.50;5.77;;;6.20;59.30;;;;;;6246512;23;20485;-67
2024/01/09 14:18:00;;;;;;;12.03;5.90;;;6.20;59.10;;;;;;6246383;23;20047;-68
2024/01/09 14:20:28;;;;;;;9.83;5.97;;;6.10;60.00;;;;;;6246089;23;20016;-68
2024/01/09 14:22:54;;;;;;;10.07;5.90;;;6.10;60.00;;;;;;6246478;23;20079;-68
2024/01/09 14:25:20;;;;;;;10.17;5.73;;;6.10;60.20;;;;;;6246915;23;20050;-68
2024/01/09 14:27:46;;;;;;;11.17;6.23;;;6.10;58.70;;;;;;6246360;23;19996;-68
2024/01/09 14:30:18;;;;;;;11.53;6.37;;;6.00;60.10;;;;;;6246525;23;20426;-68
2024/01/09 14:32:49;;;;;;;9.70;5.87;;;6.00;60.30;;;;;;6246438;23;20000;-69
2024/01/09 14:35:15;;;;;;;9.30;5.80;;;6.00;60.30;;;;;;6246482;23;20433;-70
2024/01/09 14:37:41;;;;;;;10.03;5.83;;;6.00;60.70;;;;;;6243832;23;20087;-69
2024/01/09 14:40:11;;;;;;;10.80;6.30;;;5.90;60.80;;;;;;6245230;23;20438;-71
2024/01/09 14:42:40;;;;;;;11.80;6.10;;;5.90;61.10;;;;;;6245656;23;20020;-72
2024/01/09 14:45:08;;;;;;;10.67;5.80;;;6.00;60.60;;;;;;6245900;23;20010;-71
2024/01/09 14:47:34;;;;;;;11.50;6.07;;;5.90;60.70;;;;;;6245491;23;20001;-72
2024/01/09 14:50:00;;;;;;;10.87;6.20;;;5.90;61.10;;;;;;6245844;23;20063;-69
2024/01/09 14:52:27;;;;;;;11.07;6.77;;;5.90;60.80;;;;;;6243751;23;20004;-69